Time;durP1;ratioP1;P1;durP2;ratioP2;P2;SDS_P1;SDS_P2;PMS_P1;PMS_P2;Temp;Humidity;BMP_temperature;BMP_pressure;BME280_temperature;BME280_humidity;BME280_pressure;Samples;Min_cycle;Max_cycle;Signal;HPM_P1;HPM_P2
2022/04/17 00:02:23;;;;;;;0.47;0.20;;;;;;;12.89;44.02;101223.63;5011144;28;20080;-71
2022/04/17 00:04:52;;;;;;;0.35;0.20;;;;;;;12.94;45.36;101216.84;5015095;28;20084;-70
2022/04/17 00:07:21;;;;;;;0.95;0.40;;;;;;;12.99;45.12;101215.28;5012440;28;20042;-71
2022/04/17 00:09:49;;;;;;;0.80;0.38;;;;;;;13.05;46.16;101220.59;5011004;28;20100;-70
2022/04/17 00:12:18;;;;;;;1.98;0.38;;;;;;;13.05;46.50;101236.19;5011229;28;20046;-71
2022/04/17 00:14:47;;;;;;;0.22;0.22;;;;;;;13.13;45.98;101223.44;5011068;28;20058;-71
2022/04/17 00:17:17;;;;;;;0.82;0.55;;;;;;;13.23;46.57;101229.75;5010901;28;20054;-70
2022/04/17 00:19:45;;;;;;;0.75;0.25;;;;;;;13.20;45.07;101233.16;5010216;28;20050;-71
2022/04/17 00:22:14;;;;;;;0.65;0.30;;;;;;;13.36;44.57;101226.66;5010713;28;20677;-71
2022/04/17 00:24:43;;;;;;;1.42;0.20;;;;;;;13.38;44.52;101243.19;5011295;28;20819;-71
2022/04/17 00:27:11;;;;;;;0.20;0.20;;;;;;;13.28;45.61;101234.25;5010972;28;20053;-70
2022/04/17 00:29:40;;;;;;;0.85;0.40;;;;;;;13.22;45.05;101241.88;5010244;28;20080;-70
2022/04/17 00:32:09;;;;;;;1.48;0.30;;;;;;;13.18;44.39;101253.88;5010351;28;20143;-70
2022/04/17 00:34:39;;;;;;;1.02;0.43;;;;;;;13.27;44.16;101252.38;5010670;28;20050;-70
2022/04/17 00:37:08;;;;;;;0.32;0.20;;;;;;;13.31;43.03;101256.81;5009953;28;20147;-70
2022/04/17 00:39:36;;;;;;;0.52;0.20;;;;;;;13.33;42.76;101271.66;5010295;28;20507;-70
2022/04/17 00:42:07;;;;;;;0.50;0.32;;;;;;;13.35;42.46;101276.88;5010044;28;20053;-70
2022/04/17 00:44:36;;;;;;;0.65;0.17;;;;;;;13.35;41.82;101277.78;5010692;28;20053;-70
2022/04/17 00:47:05;;;;;;;1.33;0.50;;;;;;;13.17;42.09;101278.13;5010181;28;20050;-70
2022/04/17 00:49:33;;;;;;;1.88;0.30;;;;;;;13.05;42.76;101282.97;5010372;28;20096;-71
2022/04/17 00:52:04;;;;;;;0.82;0.30;;;;;;;12.97;42.67;101284.47;5009317;28;20488;-70
2022/04/17 00:54:33;;;;;;;0.70;0.22;;;;;;;12.93;42.94;101283.50;5010584;28;20049;-70
2022/04/17 00:57:03;;;;;;;1.30;0.30;;;;;;;12.86;43.39;101289.34;5010096;28;20050;-70
2022/04/17 00:59:31;;;;;;;0.57;0.20;;;;;;;12.70;44.28;101290.63;5012431;28;20081;-68
2022/04/17 01:02:00;;;;;;;0.43;0.15;;;;;;;12.64;43.93;101302.53;5012000;28;20053;-70
2022/04/17 01:04:28;;;;;;;0.32;0.10;;;;;;;12.62;44.39;101302.53;5010707;28;20120;-69
2022/04/17 01:06:57;;;;;;;0.22;0.20;;;;;;;12.59;44.14;101302.41;5010286;28;20108;-72
2022/04/17 01:09:27;;;;;;;1.35;0.30;;;;;;;12.58;44.38;101311.06;5009640;28;20116;-70
2022/04/17 01:11:55;;;;;;;1.23;0.30;;;;;;;12.57;44.67;101309.28;5010402;28;20090;-70
2022/04/17 01:14:27;;;;;;;4.80;1.02;;;;;;;12.55;45.62;101317.03;5009490;28;20050;-70
2022/04/17 01:16:55;;;;;;;4.85;0.70;;;;;;;12.51;45.86;101316.91;5010030;28;20050;-72
2022/04/17 01:19:25;;;;;;;3.58;0.77;;;;;;;12.45;45.09;101321.88;5009502;28;20046;-70
2022/04/17 01:21:56;;;;;;;0.22;0.13;;;;;;;12.44;46.18;101317.50;5009563;28;20132;-70
2022/04/17 01:27:11;;;;;;;1.90;0.38;;;;;;;12.36;45.97;101330.25;5009710;28;20535;-72
2022/04/17 01:29:40;;;;;;;1.08;0.30;;;;;;;12.33;46.16;101335.38;5009393;28;20517;-71
2022/04/17 01:32:11;;;;;;;0.95;0.25;;;;;;;12.26;45.93;101336.88;5008798;28;20578;-71
2022/04/17 01:34:40;;;;;;;0.32;0.20;;;;;;;12.31;44.99;101337.03;5009390;28;20077;-71
2022/04/17 01:37:10;;;;;;;1.13;0.30;;;;;;;12.34;45.51;101337.97;5009183;28;20064;-70
2022/04/17 01:39:39;;;;;;;0.65;0.30;;;;;;;12.26;45.45;101334.28;5009788;28;20050;-71
2022/04/17 01:42:08;;;;;;;2.65;0.50;;;;;;;12.24;45.67;101355.84;5009226;28;20507;-70
2022/04/17 01:44:36;;;;;;;1.50;0.55;;;;;;;12.15;46.29;101346.03;5009203;28;20081;-72
2022/04/17 01:47:05;;;;;;;2.55;0.50;;;;;;;12.04;45.49;101355.16;5008979;28;20042;-69
2022/04/17 01:49:33;;;;;;;3.80;0.40;;;;;;;11.94;46.02;101357.47;5008828;28;20562;-73
2022/04/17 01:52:02;;;;;;;0.45;0.25;;;;;;;11.83;46.25;101360.50;5008703;28;20483;-72
2022/04/17 01:54:32;;;;;;;1.75;0.20;;;;;;;11.76;45.80;101369.78;5009555;28;20050;-71
2022/04/17 01:57:01;;;;;;;2.47;0.38;;;;;;;11.65;48.73;101371.97;5012372;28;20058;-71
2022/04/17 01:59:29;;;;;;;2.42;0.40;;;;;;;11.59;50.34;101378.66;5010020;28;20054;-71
2022/04/17 02:02:00;;;;;;;1.77;1.25;;;;;;;11.52;48.63;101380.16;5009085;28;20050;-71
2022/04/17 02:04:32;;;;;;;3.45;0.60;;;;;;;11.42;50.08;101384.13;5009355;28;20049;-70
2022/04/17 02:07:01;;;;;;;2.67;0.55;;;;;;;11.36;47.89;101388.19;5008980;28;20104;-73
2022/04/17 02:09:29;;;;;;;0.68;0.30;;;;;;;11.28;47.60;101399.16;5009040;28;20053;-74
2022/04/17 02:11:59;;;;;;;0.25;0.20;;;;;;;11.22;47.13;101398.06;5009344;28;20050;-72
2022/04/17 02:14:28;;;;;;;0.85;0.32;;;;;;;11.17;49.10;101404.78;5009585;28;20049;-72
2022/04/17 02:16:57;;;;;;;1.42;0.20;;;;;;;11.14;48.92;101412.44;5009095;28;20541;-71
2022/04/17 02:19:25;;;;;;;1.05;0.52;;;;;;;11.13;51.49;101423.63;5008373;28;20050;-70
2022/04/17 02:21:54;;;;;;;5.18;0.50;;;;;;;11.04;49.18;101430.22;5008637;28;20522;-71
2022/04/17 02:24:22;;;;;;;0.60;0.40;;;;;;;10.95;51.51;101421.19;5008961;28;20096;-73
2022/04/17 02:27:06;;;;;;;0.65;0.22;;;;;;;10.96;48.68;101441.97;5008419;28;20100;-72
2022/04/17 02:29:34;;;;;;;0.60;0.32;;;;;;;10.88;49.38;101449.47;5008217;28;20049;-73
2022/04/17 02:32:03;;;;;;;0.88;0.40;;;;;;;10.81;49.66;101441.38;5008262;28;20053;-72
2022/04/17 02:34:31;;;;;;;0.35;0.20;;;;;;;10.72;49.82;101447.09;5008454;28;20131;-71
2022/04/17 02:37:00;;;;;;;0.50;0.40;;;;;;;10.61;50.74;101438.03;5008516;28;20127;-72
2022/04/17 02:39:29;;;;;;;1.65;0.40;;;;;;;10.58;51.75;101449.13;5008516;28;20582;-71
2022/04/17 02:41:59;;;;;;;0.95;0.40;;;;;;;10.50;51.40;101465.16;5007327;28;20129;-72
2022/04/17 02:44:28;;;;;;;0.52;0.50;;;;;;;10.42;51.01;101467.41;5008248;28;20050;-72
2022/04/17 02:49:38;;;;;;;1.05;0.30;;;;;;;10.25;52.47;101477.03;4985635;28;20054;-73
2022/04/17 02:52:07;;;;;;;3.85;0.52;;;;;;;10.18;53.45;101473.28;5011015;28;20097;-73
2022/04/17 02:54:35;;;;;;;0.73;0.28;;;;;;;10.13;52.21;101479.97;5009713;28;20464;-73
2022/04/17 02:57:06;;;;;;;2.85;0.57;;;;;;;10.08;52.58;101489.25;5008314;28;20081;-72
2022/04/17 02:59:34;;;;;;;0.95;0.40;;;;;;;10.04;53.13;101492.50;5008232;28;20111;-72
2022/04/17 03:07:34;;;;;;;0.73;0.55;;;;;;;9.86;53.26;101502.94;5007823;28;20057;-72
2022/04/17 03:10:03;;;;;;;2.75;0.40;;;;;;;9.80;53.58;101516.47;5008452;28;20046;-71
2022/04/17 03:12:33;;;;;;;0.82;0.50;;;;;;;9.73;53.72;101517.00;5007830;28;20042;-73
2022/04/17 03:15:01;;;;;;;3.63;1.65;;;;;;;9.68;53.85;101521.06;5007460;28;20042;-71
2022/04/17 03:17:30;;;;;;;1.70;1.00;;;;;;;9.62;53.90;101520.78;5008022;28;20089;-71
2022/04/17 03:19:59;;;;;;;1.80;0.90;;;;;;;9.58;54.04;101531.81;5008623;28;20058;-72
2022/04/17 03:22:27;;;;;;;3.05;1.30;;;;;;;9.52;54.95;101534.13;5007976;28;20081;-72
2022/04/17 03:24:56;;;;;;;1.75;1.10;;;;;;;9.45;54.62;101538.09;5008191;28;20084;-72
2022/04/17 03:27:24;;;;;;;2.75;1.50;;;;;;;9.36;55.19;101541.13;5007594;28;20070;-71
2022/04/17 03:29:54;;;;;;;2.90;2.10;;;;;;;9.31;55.27;101545.22;5007174;28;20104;-71
2022/04/17 03:32:23;;;;;;;3.97;2.30;;;;;;;9.25;56.59;101544.91;5007392;28;20046;-71
2022/04/17 03:34:51;;;;;;;6.10;1.65;;;;;;;9.17;56.59;101554.00;5006412;28;20084;-71
2022/04/17 03:37:20;;;;;;;2.53;1.33;;;;;;;9.07;56.49;101554.34;5007460;28;20499;-72
2022/04/17 03:39:48;;;;;;;1.33;0.93;;;;;;;9.00;56.70;101553.19;5007792;28;20046;-70
2022/04/17 03:42:17;;;;;;;1.70;0.70;;;;;;;8.95;56.41;101563.28;5007712;28;20054;-71
2022/04/17 03:44:46;;;;;;;1.60;0.70;;;;;;;8.90;56.96;101563.88;5008190;28;20045;-71
2022/04/17 03:47:16;;;;;;;2.22;0.80;;;;;;;8.79;56.63;101569.38;5008041;28;20054;-71
2022/04/17 03:49:45;;;;;;;0.50;0.38;;;;;;;8.72;56.62;101577.63;5011563;28;20046;-73
2022/04/17 03:52:14;;;;;;;2.15;0.85;;;;;;;8.64;57.00;101593.56;5007830;28;20045;-72
2022/04/17 03:54:42;;;;;;;3.22;0.85;;;;;;;8.58;57.69;101594.09;5010684;28;20487;-72
2022/04/17 03:57:11;;;;;;;0.80;0.40;;;;;;;8.54;57.56;101605.97;5009840;28;20515;-72
2022/04/17 03:59:39;;;;;;;1.10;0.20;;;;;;;8.49;57.67;101603.97;5009550;28;20614;-72
2022/04/17 04:02:08;;;;;;;0.98;0.22;;;;;;;8.44;58.66;101606.31;5010504;28;20140;-77
2022/04/17 04:04:38;;;;;;;0.73;0.45;;;;;;;8.44;61.03;101615.75;5010188;28;20515;-72
2022/04/17 04:07:07;;;;;;;1.10;0.65;;;;;;;8.35;62.40;101616.97;5009267;28;20081;-71
2022/04/17 04:09:35;;;;;;;2.83;0.55;;;;;;;8.35;61.67;101623.84;5010973;28;20093;-70
2022/04/17 04:12:05;;;;;;;0.55;0.38;;;;;;;8.32;61.45;101632.31;5010659;28;20100;-72
2022/04/17 04:14:33;;;;;;;0.50;0.50;;;;;;;8.30;61.79;101639.06;5010959;28;20746;-72
2022/04/17 04:17:02;;;;;;;1.40;0.55;;;;;;;8.27;61.47;101649.22;5011233;28;20104;-72
2022/04/17 04:19:30;;;;;;;1.27;0.60;;;;;;;8.25;61.68;101652.53;5011073;28;20573;-72
2022/04/17 04:22:00;;;;;;;1.58;0.80;;;;;;;8.24;61.20;101653.31;5010464;28;20080;-72
2022/04/17 04:24:30;;;;;;;0.77;0.57;;;;;;;8.20;63.29;101662.59;5010221;28;20050;-72
2022/04/17 04:29:52;;;;;;;0.60;0.52;;;;;;;7.95;67.19;101662.97;4986239;28;20046;-71
2022/04/17 04:32:21;;;;;;;0.57;0.40;;;;;;;7.91;67.38;101661.03;5010852;28;20050;-71
2022/04/17 04:34:50;;;;;;;1.30;0.55;;;;;;;7.87;65.91;101659.06;5010628;28;20046;-71
2022/04/17 04:37:20;;;;;;;1.83;0.30;;;;;;;7.71;69.57;101665.94;5010792;28;20625;-72
2022/04/17 04:39:48;;;;;;;0.40;0.20;;;;;;;7.48;70.66;101674.09;5010658;28;20089;-71
2022/04/17 04:42:17;;;;;;;1.35;0.32;;;;;;;7.39;69.86;101681.28;5010453;28;20497;-71
2022/04/17 04:44:47;;;;;;;0.93;0.50;;;;;;;7.34;70.88;101679.31;5010872;28;20104;-72
2022/04/17 04:47:15;;;;;;;1.65;0.40;;;;;;;7.29;72.63;101680.75;5014617;28;20053;-73
2022/04/17 04:49:43;;;;;;;0.30;0.30;;;;;;;7.28;72.87;101673.84;5011659;28;20118;-72
2022/04/17 04:52:11;;;;;;;0.55;0.30;;;;;;;7.21;70.21;101682.00;5009749;28;20056;-73
2022/04/17 04:54:41;;;;;;;0.50;0.30;;;;;;;7.19;69.80;101688.72;5010837;28;20551;-73
2022/04/17 04:57:09;;;;;;;1.05;0.60;;;;;;;7.13;70.44;101686.72;5010129;28;20120;-71
2022/04/17 04:59:38;;;;;;;6.82;0.52;;;;;;;7.09;70.25;101702.75;5010508;28;20050;-70
2022/04/17 05:02:06;;;;;;;3.47;0.40;;;;;;;7.08;68.96;101692.41;5009921;28;20578;-71
2022/04/17 05:04:35;;;;;;;1.58;0.60;;;;;;;7.07;69.13;101694.06;5009365;28;20578;-71
2022/04/17 05:07:04;;;;;;;0.73;0.32;;;;;;;7.08;69.19;101698.44;5009434;28;20053;-71
2022/04/17 05:09:32;;;;;;;1.55;0.60;;;;;;;7.00;69.00;101691.03;5010348;28;20046;-70
2022/04/17 05:12:02;;;;;;;1.75;0.40;;;;;;;7.08;68.50;101701.00;5009651;28;20112;-71
2022/04/17 05:14:31;;;;;;;0.57;0.30;;;;;;;7.06;68.25;101707.75;5009747;28;20092;-71
2022/04/17 05:16:59;;;;;;;0.50;0.40;;;;;;;7.03;68.09;101706.66;5009642;28;20121;-70
2022/04/17 05:19:38;;;;;;;0.90;0.52;;;;;;;6.99;67.93;101715.00;5010046;28;20058;-69
2022/04/17 05:22:10;;;;;;;0.98;0.43;;;;;;;6.95;68.12;101718.19;5009203;28;20140;-69
2022/04/17 05:24:39;;;;;;;4.15;1.08;;;;;;;6.88;69.87;101717.81;5009500;28;20116;-69
2022/04/17 05:27:16;;;;;;;5.45;0.50;;;;;;;6.78;70.66;101720.66;5009355;28;20077;-70
2022/04/17 05:29:44;;;;;;;2.65;0.82;;;;;;;6.75;69.98;101730.72;5009485;28;20046;-70
2022/04/17 05:32:13;;;;;;;1.23;0.65;;;;;;;6.71;69.43;101739.06;5009407;28;20121;-71
2022/04/17 05:34:41;;;;;;;1.20;0.68;;;;;;;6.65;70.12;101738.69;5009658;28;20050;-70
2022/04/17 05:37:09;;;;;;;0.80;0.60;;;;;;;6.48;70.74;101730.84;5009078;28;20054;-70
2022/04/17 05:39:38;;;;;;;1.70;0.60;;;;;;;6.39;71.05;101740.56;5009212;28;20555;-70
2022/04/17 05:42:06;;;;;;;0.65;0.52;;;;;;;6.38;70.82;101735.31;5008870;28;20104;-72
2022/04/17 05:44:37;;;;;;;2.72;1.05;;;;;;;6.37;71.27;101736.09;5013314;28;20046;-71
2022/04/17 05:47:06;;;;;;;2.33;0.60;;;;;;;6.37;71.90;101739.56;5009330;28;20135;-70
2022/04/17 05:49:34;;;;;;;0.85;0.38;;;;;;;6.37;71.47;101742.16;5010078;28;20058;-71
2022/04/17 05:52:03;;;;;;;0.75;0.60;;;;;;;6.31;72.03;101752.03;5008050;28;20125;-69
2022/04/17 05:54:31;;;;;;;0.43;0.40;;;;;;;6.28;72.56;101741.56;5008957;28;20495;-70
2022/04/17 05:57:01;;;;;;;2.97;0.52;;;;;;;6.26;72.55;101753.44;5009273;28;20049;-70
2022/04/17 05:59:29;;;;;;;1.20;0.50;;;;;;;6.26;72.87;101749.19;5009428;28;20104;-70
2022/04/17 06:02:01;;;;;;;1.58;0.77;;;;;;;6.23;72.89;101764.41;5008612;28;20085;-69
2022/04/17 06:04:29;;;;;;;1.77;0.70;;;;;;;6.23;73.56;101768.66;5008536;28;20092;-70
2022/04/17 06:06:58;;;;;;;0.30;0.30;;;;;;;6.20;72.94;101773.59;5008985;28;20104;-70
2022/04/17 06:09:26;;;;;;;1.15;0.50;;;;;;;6.14;73.49;101775.78;5008971;28;20396;-70
2022/04/17 06:11:55;;;;;;;1.05;0.68;;;;;;;6.13;73.07;101784.28;5008589;28;20073;-72
2022/04/17 06:14:23;;;;;;;0.95;0.60;;;;;;;6.04;74.52;101792.28;5008624;28;20053;-71
2022/04/17 06:16:51;;;;;;;1.60;0.40;;;;;;;6.01;75.49;101784.41;5008061;28;20132;-70
2022/04/17 06:19:22;;;;;;;1.05;0.50;;;;;;;5.98;74.93;101792.78;5008849;28;20137;-69
2022/04/17 06:21:50;;;;;;;0.93;0.45;;;;;;;5.95;74.91;101792.56;5008507;28;20081;-70
2022/04/17 06:24:18;;;;;;;0.75;0.45;;;;;;;5.93;74.52;101794.13;5007634;28;20057;-70
2022/04/17 06:26:54;;;;;;;1.20;0.50;;;;;;;5.88;74.14;101800.66;5008002;28;20127;-69
2022/04/17 06:29:22;;;;;;;2.05;0.50;;;;;;;5.90;75.54;101800.75;5008162;28;20133;-70
2022/04/17 06:31:50;;;;;;;2.17;0.60;;;;;;;5.86;76.03;101798.00;5008400;28;20042;-70
2022/04/17 06:34:21;;;;;;;0.80;0.40;;;;;;;5.85;76.48;101803.03;5008514;28;20081;-70
2022/04/17 06:36:49;;;;;;;2.92;0.70;;;;;;;5.83;75.68;101796.91;5008534;28;20661;-71
2022/04/17 06:39:17;;;;;;;0.93;0.52;;;;;;;5.79;75.89;101800.94;5008043;28;20053;-70
2022/04/17 06:41:46;;;;;;;4.68;0.95;;;;;;;5.78;75.70;101808.56;5009184;28;20077;-71
2022/04/17 06:44:14;;;;;;;0.60;0.32;;;;;;;5.75;76.34;101816.03;5012084;28;20050;-71
2022/04/17 06:46:43;;;;;;;2.40;1.00;;;;;;;5.69;76.79;101818.22;5008935;28;20151;-71
2022/04/17 06:49:11;;;;;;;1.52;0.77;;;;;;;5.62;77.13;101825.50;5008364;28;20045;-71
2022/04/17 06:51:41;;;;;;;2.10;0.77;;;;;;;5.57;77.22;101824.31;5014666;28;20458;-70
2022/04/17 06:54:10;;;;;;;3.70;1.20;;;;;;;5.55;77.27;101820.75;5008254;28;20187;-70
2022/04/17 06:56:38;;;;;;;1.33;0.73;;;;;;;5.50;78.28;101817.00;5008164;28;20057;-71
2022/04/17 06:59:07;;;;;;;6.13;1.15;;;;;;;5.38;79.25;101818.72;5007719;28;20067;-69
2022/04/17 07:01:35;;;;;;;3.13;1.35;;;;;;;5.24;78.75;101808.44;5008237;28;20392;-69
2022/04/17 07:04:04;;;;;;;1.30;0.73;;;;;;;5.31;78.29;101824.22;5007657;28;20050;-70
2022/04/17 07:06:32;;;;;;;1.25;0.80;;;;;;;5.31;78.82;101813.97;5008536;28;20046;-70
2022/04/17 07:09:02;;;;;;;3.08;1.02;;;;;;;5.31;77.56;101814.84;5008100;28;20550;-71
2022/04/17 07:11:31;;;;;;;5.18;1.27;;;;;;;5.29;77.55;101815.53;5008096;28;20124;-70
2022/04/17 07:13:59;;;;;;;2.40;1.13;;;;;;;5.23;78.20;101816.91;5008272;28;20404;-71
2022/04/17 07:16:27;;;;;;;2.72;1.02;;;;;;;5.19;79.08;101824.28;5008003;28;20041;-68
2022/04/17 07:18:56;;;;;;;3.08;0.98;;;;;;;5.16;79.73;101827.53;5008033;28;20050;-70
2022/04/17 07:21:26;;;;;;;1.55;0.80;;;;;;;5.16;79.72;101835.25;5008157;28;20085;-69
2022/04/17 07:23:55;;;;;;;2.80;1.45;;;;;;;5.15;79.90;101838.56;5007889;28;20124;-69
2022/04/17 07:26:25;;;;;;;1.85;1.08;;;;;;;5.13;80.61;101835.03;5008320;28;20057;-70
2022/04/17 07:28:53;;;;;;;4.80;1.15;;;;;;;5.13;80.54;101837.59;5010551;28;20492;-70
2022/04/17 07:31:22;;;;;;;3.38;1.17;;;;;;;5.12;80.21;101838.38;5011742;28;20053;-69
2022/04/17 07:33:50;;;;;;;1.45;0.90;;;;;;;5.10;80.18;101833.94;5012214;28;20054;-70
2022/04/17 07:36:20;;;;;;;4.13;1.98;;;;;;;5.10;80.61;101839.94;5011700;28;20045;-70
2022/04/17 07:38:48;;;;;;;7.10;2.55;;;;;;;5.10;81.04;101839.94;5011822;28;20042;-69
2022/04/17 07:41:17;;;;;;;8.48;3.60;;;;;;;5.12;81.61;101851.19;5012186;28;20129;-70
2022/04/17 07:43:47;;;;;;;11.45;5.40;;;;;;;5.12;81.90;101848.63;5015829;28;20515;-70
2022/04/17 07:46:15;;;;;;;15.63;6.03;;;;;;;5.15;82.90;101842.81;5012346;28;20050;-70
2022/04/17 07:48:44;;;;;;;15.60;6.82;;;;;;;5.18;83.17;101843.06;5012032;28;20495;-70
2022/04/17 07:51:12;;;;;;;14.40;6.40;;;;;;;5.21;82.48;101846.69;5011643;28;20049;-69
2022/04/17 07:53:40;;;;;;;14.90;6.13;;;;;;;5.20;83.68;101847.50;5011226;28;20085;-69
2022/04/17 07:56:10;;;;;;;11.65;4.68;;;;;;;5.21;85.18;101841.56;5011630;28;20050;-69
2022/04/17 07:58:39;;;;;;;7.53;3.63;;;;;;;5.22;86.06;101840.81;5011054;28;20053;-69
2022/04/17 08:01:11;;;;;;;6.35;3.25;;;;;;;5.27;86.49;101842.75;5011052;28;20432;-69
2022/04/17 08:03:47;;;;;;;7.47;2.92;;;;;;;5.30;86.21;101845.56;5011338;28;20050;-69
2022/04/17 08:06:17;;;;;;;5.93;3.00;;;;;;;5.34;86.61;101845.00;5010851;28;20125;-69
2022/04/17 08:08:47;;;;;;;6.38;3.45;;;;;;;5.36;87.35;101843.38;5011266;28;20056;-69
2022/04/17 08:11:15;;;;;;;6.05;3.30;;;;;;;5.38;87.19;101841.81;5010459;28;20081;-69
2022/04/17 08:13:44;;;;;;;5.47;3.55;;;;;;;5.41;87.71;101836.91;5010812;28;20081;-69
2022/04/17 08:16:15;;;;;;;6.15;2.00;;;;;;;5.44;86.80;101838.00;5011108;28;20054;-69
2022/04/17 08:18:43;;;;;;;4.22;2.67;;;;;;;5.45;86.05;101838.88;5010999;28;20107;-69
2022/04/17 08:21:12;;;;;;;5.95;2.28;;;;;;;5.47;86.66;101837.31;5010543;28;20496;-70
2022/04/17 08:23:41;;;;;;;4.38;2.45;;;;;;;5.47;87.33;101837.31;5010790;28;20140;-70
2022/04/17 08:26:09;;;;;;;5.65;2.75;;;;;;;5.38;100.00;101840.16;5010484;28;20773;-70
2022/04/17 08:28:38;;;;;;;2.20;1.20;;;;;;;5.30;100.00;101848.13;5010814;28;20169;-68
2022/04/17 08:31:10;;;;;;;2.88;0.90;;;;;;;5.27;100.00;101840.19;5011259;28;20046;-69
2022/04/17 08:33:40;;;;;;;1.23;0.63;;;;;;;5.27;100.00;101835.06;5010589;28;20046;-69
2022/04/17 08:36:10;;;;;;;1.55;0.55;;;;;;;5.26;100.00;101836.75;5009978;28;20143;-70
2022/04/17 08:38:38;;;;;;;0.68;0.57;;;;;;;5.29;100.00;101836.97;5010458;28;20137;-70
2022/04/17 08:41:07;;;;;;;1.30;0.73;;;;;;;5.33;100.00;101838.06;5010654;28;20100;-70
2022/04/17 08:43:37;;;;;;;3.05;0.82;;;;;;;5.38;100.00;101846.94;5014307;28;20064;-70
2022/04/17 08:46:06;;;;;;;1.13;0.70;;;;;;;5.42;100.00;101848.94;5011095;28;20089;-68
2022/04/17 08:48:35;;;;;;;1.17;0.80;;;;;;;5.44;100.00;101842.25;5010922;28;20050;-69
2022/04/17 08:51:06;;;;;;;2.10;0.60;;;;;;;5.48;100.00;101846.81;5011084;28;20133;-69
2022/04/17 08:53:37;;;;;;;1.58;0.88;;;;;;;5.52;100.00;101845.31;5010018;28;20061;-70
2022/04/17 08:56:06;;;;;;;1.00;0.70;;;;;;;5.54;100.00;101844.63;5010334;28;20112;-70
2022/04/17 08:58:35;;;;;;;1.92;1.27;;;;;;;5.58;100.00;101841.50;5009815;28;20495;-70
2022/04/17 09:01:04;;;;;;;2.83;0.95;;;;;;;5.62;100.00;101843.47;5010895;28;20046;-69
2022/04/17 09:03:33;;;;;;;1.67;0.82;;;;;;;5.67;100.00;101846.34;5009791;28;20046;-69
2022/04/17 09:06:02;;;;;;;0.85;0.60;;;;;;;5.71;100.00;101850.03;5010417;28;20049;-69
2022/04/17 09:08:32;;;;;;;1.10;0.80;;;;;;;5.69;100.00;101849.91;5009722;28;20104;-70
2022/04/17 09:11:01;;;;;;;2.15;0.70;;;;;;;5.64;100.00;101859.00;5009507;28;20074;-70
2022/04/17 09:13:34;;;;;;;0.75;0.50;;;;;;;5.57;100.00;101855.13;5010201;28;20120;-70
2022/04/17 09:16:03;;;;;;;0.88;0.50;;;;;;;5.58;100.00;101853.44;5010177;28;20109;-71
2022/04/17 09:18:32;;;;;;;1.65;0.57;;;;;;;5.62;100.00;101858.88;5010019;28;20064;-69
2022/04/17 09:21:02;;;;;;;0.95;0.40;;;;;;;5.70;100.00;101858.50;5009553;28;20105;-70
2022/04/17 09:23:40;;;;;;;2.25;0.50;;;;;;;5.69;100.00;101860.19;5009216;28;20053;-70
2022/04/17 09:26:09;;;;;;;4.05;0.68;;;;;;;5.70;100.00;101866.22;5009811;28;20133;-70
2022/04/17 09:28:39;;;;;;;3.42;0.60;;;;;;;5.73;100.00;101863.88;5009493;28;20495;-70
2022/04/17 09:31:14;;;;;;;2.05;0.57;;;;;;;5.78;100.00;101865.06;5009601;28;20050;-70
2022/04/17 09:33:49;;;;;;;0.98;0.68;;;;;;;5.83;100.00;101864.56;5009912;28;20120;-69
2022/04/17 09:36:18;;;;;;;1.50;0.50;;;;;;;5.88;100.00;101862.28;5009366;28;20119;-70
2022/04/17 09:38:48;;;;;;;0.43;0.38;;;;;;;5.91;100.00;101872.78;5009665;28;20107;-71
2022/04/17 09:41:19;;;;;;;1.05;0.40;;;;;;;5.94;100.00;101873.00;5010097;28;20049;-71
2022/04/17 09:43:47;;;;;;;0.65;0.63;;;;;;;5.95;100.00;101874.78;5012526;28;20068;-70
2022/04/17 09:46:16;;;;;;;1.15;0.50;;;;;;;5.89;100.00;101879.50;5009866;28;20535;-70
2022/04/17 09:48:46;;;;;;;0.57;0.25;;;;;;;5.78;100.00;101877.91;5010282;28;20120;-71
2022/04/17 09:51:24;;;;;;;0.90;0.70;;;;;;;5.71;100.00;101876.59;5009598;28;20487;-71
2022/04/17 09:54:02;;;;;;;0.52;0.40;;;;;;;5.71;100.00;101881.72;5009119;28;20077;-70
2022/04/17 09:56:34;;;;;;;1.55;0.75;;;;;;;5.76;100.00;101879.47;5009767;28;20518;-70
2022/04/17 09:59:16;;;;;;;0.85;0.52;;;;;;;5.81;100.00;101885.78;5009186;28;20462;-70
2022/04/17 10:01:46;;;;;;;0.55;0.40;;;;;;;5.85;100.00;101885.22;5009046;28;20045;-70
2022/04/17 10:04:19;;;;;;;0.60;0.40;;;;;;;5.88;100.00;101893.13;5008458;28;20054;-70
2022/04/17 10:06:49;;;;;;;1.48;0.70;;;;;;;5.94;100.00;101893.56;5008917;28;20056;-70
2022/04/17 10:09:20;;;;;;;1.30;0.60;;;;;;;5.96;100.00;101889.44;5009066;28;20061;-70
2022/04/17 10:11:49;;;;;;;2.05;0.60;;;;;;;5.99;100.00;101887.06;5009531;28;20049;-69
2022/04/17 10:14:18;;;;;;;0.70;0.50;;;;;;;6.02;100.00;101891.50;5008647;28;20049;-70
2022/04/17 10:16:48;;;;;;;1.85;0.77;;;;;;;6.03;100.00;101889.03;5008949;28;20124;-69
2022/04/17 10:19:18;;;;;;;1.77;0.73;;;;;;;6.08;100.00;101891.91;5008357;28;20046;-69
2022/04/17 10:21:48;;;;;;;1.35;0.60;;;;;;;6.11;100.00;101886.06;5001719;28;20038;-68
2022/04/17 10:24:18;;;;;;;2.38;0.70;;;;;;;6.11;100.00;101884.38;5008568;28;20499;-69
2022/04/17 10:26:50;;;;;;;1.17;0.70;;;;;;;6.12;100.00;101893.91;5008724;28;20561;-69
2022/04/17 10:29:24;;;;;;;1.15;0.70;;;;;;;6.11;100.00;101902.38;5008614;28;20057;-70
2022/04/17 10:32:15;;;;;;;2.38;0.60;;;;;;;6.13;100.00;101899.91;5008904;28;20045;-70
2022/04/17 10:35:26;;;;;;;0.82;0.60;;;;;;;6.14;100.00;101899.13;5008880;28;20057;-70
2022/04/17 10:38:25;;;;;;;2.47;1.02;;;;;;;6.12;100.00;101901.59;5004141;28;20053;-70
2022/04/17 10:40:59;;;;;;;1.00;0.70;;;;;;;6.13;100.00;101885.38;5009437;28;20546;-70
2022/04/17 10:43:35;;;;;;;0.93;0.60;;;;;;;6.15;100.00;101888.06;5012289;28;20448;-70
2022/04/17 10:46:14;;;;;;;2.17;0.70;;;;;;;6.17;100.00;101886.50;5010019;28;20057;-70
2022/04/17 10:48:48;;;;;;;1.17;0.80;;;;;;;6.06;100.00;101878.94;5009039;28;20046;-70
2022/04/17 10:51:26;;;;;;;1.75;0.73;;;;;;;6.17;100.00;101896.78;5008423;28;20045;-69
2022/04/17 10:54:06;;;;;;;0.98;0.50;;;;;;;6.20;100.00;101894.38;5008517;28;20594;-70
2022/04/17 10:56:37;;;;;;;1.38;0.63;;;;;;;6.19;100.00;101900.34;5008433;28;20082;-69
2022/04/17 10:59:16;;;;;;;0.88;0.50;;;;;;;6.16;100.00;101889.84;5000189;28;20065;-70
2022/04/17 11:01:56;;;;;;;0.85;0.60;;;;;;;6.15;100.00;101893.22;5008487;28;20104;-70
2022/04/17 11:04:26;;;;;;;1.15;0.70;;;;;;;6.13;100.00;101885.38;5012256;28;20069;-70
2022/04/17 11:07:21;;;;;;;0.80;0.57;;;;;;;6.11;100.00;101894.66;5012312;28;20687;-70
2022/04/17 11:10:05;;;;;;;1.00;0.77;;;;;;;6.07;100.00;101898.75;4995105;28;20054;-70
2022/04/17 11:12:46;;;;;;;1.58;1.05;;;;;;;6.05;100.00;101896.84;5005072;28;20057;-69
2022/04/17 11:15:34;;;;;;;2.40;0.90;;;;;;;6.01;100.00;101900.88;5012217;28;20072;-69
2022/04/17 11:18:04;;;;;;;1.00;0.80;;;;;;;5.97;100.00;101901.47;5012039;28;20050;-69
2022/04/17 11:20:32;;;;;;;2.03;0.93;;;;;;;5.94;100.00;101900.34;5012533;28;20052;-70
2022/04/17 11:23:01;;;;;;;0.95;0.60;;;;;;;5.90;100.00;101900.94;5012312;28;20096;-69
2022/04/17 11:25:30;;;;;;;1.38;0.88;;;;;;;5.85;100.00;101895.50;5012308;28;20136;-70
2022/04/17 11:28:02;;;;;;;1.38;0.60;;;;;;;5.80;100.00;101889.16;5011373;28;20062;-71
2022/04/17 11:30:38;;;;;;;4.13;0.75;;;;;;;5.75;100.00;101882.81;5012234;28;20053;-70
2022/04/17 11:33:09;;;;;;;1.80;0.90;;;;;;;5.70;100.00;101877.38;5012015;28;20077;-71
2022/04/17 11:35:42;;;;;;;2.35;0.70;;;;;;;5.66;100.00;101880.53;5011903;28;20128;-69
2022/04/17 11:38:10;;;;;;;;;;;;;;;5.61;100.00;101880.22;5012365;28;20050;-69
2022/04/17 11:40:41;;;;;;;0.90;0.70;;;;;;;5.58;100.00;101886.81;5013485;28;19983;-69
2022/04/17 11:43:12;;;;;;;1.50;0.70;;;;;;;5.53;100.00;101878.81;5014584;28;20069;-69
2022/04/17 11:45:43;;;;;;;0.98;0.52;;;;;;;5.49;100.00;101878.50;5012528;28;20045;-69
2022/04/17 11:48:13;;;;;;;0.77;0.57;;;;;;;5.44;100.00;101883.31;5011994;28;20046;-70
2022/04/17 11:50:43;;;;;;;0.75;0.63;;;;;;;5.41;100.00;101872.84;5012203;28;20077;-69
2022/04/17 11:53:15;;;;;;;0.75;0.57;;;;;;;5.37;100.00;101866.59;5011303;28;20042;-70
2022/04/17 11:55:45;;;;;;;4.05;1.00;;;;;;;5.32;100.00;101867.97;5028171;28;20087;-70
2022/04/17 11:58:14;;;;;;;2.47;0.63;;;;;;;5.29;100.00;101872.00;5030827;28;20054;-69